Ana Sayfa
METAR-TAF:

METAR-TAF

Havaalanları :

Branch County Memorial Airport

Coldwater, Michigan, Amerika Birleşik Devletleri

Enlem: 41-56N, Boylam: 085-03-09W, yükseklik: 292 m

Güncel hava durumu gözlemi

Rapor saat 14:57 UTC de 21 dakika önce yapıldı.
Rüzgar güneybatıdan 4 kt
Sıcaklık 27°C
Nem 84%
Basınç 1014 hPa
Görüş mesafesi: 16.1 km
Açık gökyüzü

METAR: KOEB 181457Z AUTO 22004KT 10SM CLR 27/24 A2994 RMK AO2 T02660240

Saat: 11:18 (15:18 UTC)


TAF: eksik

4.000'den fazla havaalanı için hava durumu gözlemleri ve tahminleri (METAR ve TAF raporları).

Kullanılabilir istasyonlar harita üzerinde sarı ve kırmızı noktalarla gösterilir.

İstasyonun adını görmek için fareyi noktanın üzerinde gezdirin.

Sonrasında hava gözlem ve tahminlerini görmek için tıklayın.

Haritayı değiştirmek için: yaklaştırmak için siyah artı işaretli yeşil düğmeye ve uzaklaştırmak için de eksi işaretli düğmeye hızla tıklayın; bitişik haritalar için yeşil okları kullanın.


METAR-TAF: